Holmrook, United Kingdom
Current Conditions -  °F | °C
As of 1:50 PM on Saturday 01 Nov 2014 (Local Time) from EGNC Reporting Station
Rain Showers Rain Showers  
Wind Chill: 12°   Ceiling: Unl
Heat Index: 12°   Visibility: 6mi
Dew Point:   Wind: 17mph
Humidity: 82%   Direction: 210°SSW
Pressure: 29.74"   Gusts: NA
Location:  54.39°N, 3.38°W
Report Text: EGNC 011350Z 21015KT 9999 VCSH SCT019 SCT024 12/09 Q1007
Loading
Personal Weather Stations






























Interactive Weather Map
Tropical Storm Tracking
New forecast layout! Learn more

10-Day Weather Forecast

Advertisements
Track Severe Weather on mobile